sensor_id;sensor_type;location;lat;lon;timestamp;temperature;humidity
53314;DHT22;39202;51.468;7.146;2023-06-04T00:04:47;28.90;30.00
53314;DHT22;39202;51.468;7.146;2023-06-04T00:09:49;29.00;30.00
53314;DHT22;39202;51.468;7.146;2023-06-04T00:14:50;28.90;30.00
53314;DHT22;39202;51.468;7.146;2023-06-04T00:19:53;28.90;30.00
53314;DHT22;39202;51.468;7.146;2023-06-04T00:24:55;28.90;30.00
53314;DHT22;39202;51.468;7.146;2023-06-04T00:29:57;28.90;30.00
53314;DHT22;39202;51.468;7.146;2023-06-04T00:35:00;28.90;30.00
53314;DHT22;39202;51.468;7.146;2023-06-04T00:40:02;28.80;30.00
53314;DHT22;39202;51.468;7.146;2023-06-04T00:45:05;28.80;30.00
53314;DHT22;39202;51.468;7.146;2023-06-04T00:50:10;28.80;30.00
53314;DHT22;39202;51.468;7.146;2023-06-04T00:55:12;28.80;30.00
53314;DHT22;39202;51.468;7.146;2023-06-04T01:00:14;28.80;30.00
53314;DHT22;39202;51.468;7.146;2023-06-04T01:05:23;28.80;30.00
53314;DHT22;39202;51.468;7.146;2023-06-04T01:10:29;28.80;30.10
53314;DHT22;39202;51.468;7.146;2023-06-04T01:15:31;28.70;30.00
53314;DHT22;39202;51.468;7.146;2023-06-04T01:20:38;28.70;30.10
53314;DHT22;39202;51.468;7.146;2023-06-04T01:25:42;28.70;30.10
53314;DHT22;39202;51.468;7.146;2023-06-04T01:30:46;28.70;30.20
53314;DHT22;39202;51.468;7.146;2023-06-04T01:35:50;28.70;30.20
53314;DHT22;39202;51.468;7.146;2023-06-04T01:40:52;28.70;30.20
53314;DHT22;39202;51.468;7.146;2023-06-04T01:45:56;28.60;30.10
53314;DHT22;39202;51.468;7.146;2023-06-04T01:50:59;28.60;30.10
53314;DHT22;39202;51.468;7.146;2023-06-04T01:56:02;28.60;30.20
53314;DHT22;39202;51.468;7.146;2023-06-04T02:01:04;28.60;30.20
53314;DHT22;39202;51.468;7.146;2023-06-04T02:06:08;28.50;30.20
53314;DHT22;39202;51.468;7.146;2023-06-04T02:11:10;28.50;30.30
53314;DHT22;39202;51.468;7.146;2023-06-04T02:16:12;28.50;30.40
53314;DHT22;39202;51.468;7.146;2023-06-04T02:21:15;28.50;30.50
53314;DHT22;39202;51.468;7.146;2023-06-04T02:26:17;28.50;30.40
53314;DHT22;39202;51.468;7.146;2023-06-04T02:31:18;28.50;30.50
53314;DHT22;39202;51.468;7.146;2023-06-04T02:36:23;28.50;30.50
53314;DHT22;39202;51.468;7.146;2023-06-04T02:41:24;28.40;30.50
53314;DHT22;39202;51.468;7.146;2023-06-04T02:46:26;28.50;30.50
53314;DHT22;39202;51.468;7.146;2023-06-04T02:51:29;28.40;30.50
53314;DHT22;39202;51.468;7.146;2023-06-04T02:56:31;28.40;30.50
53314;DHT22;39202;51.468;7.146;2023-06-04T03:01:33;28.40;30.50
53314;DHT22;39202;51.468;7.146;2023-06-04T03:06:37;28.40;30.60
53314;DHT22;39202;51.468;7.146;2023-06-04T03:11:39;28.40;30.60
53314;DHT22;39202;51.468;7.146;2023-06-04T03:16:41;28.40;30.70
53314;DHT22;39202;51.468;7.146;2023-06-04T03:21:44;28.40;30.70
53314;DHT22;39202;51.468;7.146;2023-06-04T03:26:47;28.40;30.70
53314;DHT22;39202;51.468;7.146;2023-06-04T03:31:49;28.40;30.70
53314;DHT22;39202;51.468;7.146;2023-06-04T03:36:52;28.40;30.70
53314;DHT22;39202;51.468;7.146;2023-06-04T03:41:53;28.40;30.70
53314;DHT22;39202;51.468;7.146;2023-06-04T03:46:55;28.30;30.70
53314;DHT22;39202;51.468;7.146;2023-06-04T03:51:58;28.30;30.70
53314;DHT22;39202;51.468;7.146;2023-06-04T03:57:00;28.30;30.80
53314;DHT22;39202;51.468;7.146;2023-06-04T04:02:03;28.30;30.80
53314;DHT22;39202;51.468;7.146;2023-06-04T04:07:07;28.30;30.80
53314;DHT22;39202;51.468;7.146;2023-06-04T04:12:08;28.30;30.80
53314;DHT22;39202;51.468;7.146;2023-06-04T04:17:10;28.30;30.80
53314;DHT22;39202;51.468;7.146;2023-06-04T04:22:14;28.30;30.90
53314;DHT22;39202;51.468;7.146;2023-06-04T04:27:17;28.30;30.90
53314;DHT22;39202;51.468;7.146;2023-06-04T04:32:19;28.30;30.90
53314;DHT22;39202;51.468;7.146;2023-06-04T04:37:24;28.20;30.90
53314;DHT22;39202;51.468;7.146;2023-06-04T04:42:26;28.20;30.90
53314;DHT22;39202;51.468;7.146;2023-06-04T04:47:28;28.30;31.00
53314;DHT22;39202;51.468;7.146;2023-06-04T04:52:31;28.20;31.00
53314;DHT22;39202;51.468;7.146;2023-06-04T04:57:32;28.20;31.00
53314;DHT22;39202;51.468;7.146;2023-06-04T05:02:34;28.20;31.00
53314;DHT22;39202;51.468;7.146;2023-06-04T05:07:37;28.20;31.10
53314;DHT22;39202;51.468;7.146;2023-06-04T05:12:40;28.20;31.20
53314;DHT22;39202;51.468;7.146;2023-06-04T05:17:52;28.20;31.20
53314;DHT22;39202;51.468;7.146;2023-06-04T05:22:55;28.20;31.20
53314;DHT22;39202;51.468;7.146;2023-06-04T05:27:57;28.30;31.30
53314;DHT22;39202;51.468;7.146;2023-06-04T05:32:59;28.30;31.30
53314;DHT22;39202;51.468;7.146;2023-06-04T05:38:02;28.30;31.30
53314;DHT22;39202;51.468;7.146;2023-06-04T05:43:04;28.30;31.30
53314;DHT22;39202;51.468;7.146;2023-06-04T05:48:07;28.30;31.30
53314;DHT22;39202;51.468;7.146;2023-06-04T05:53:11;28.30;31.30
53314;DHT22;39202;51.468;7.146;2023-06-04T05:58:12;28.40;31.40
53314;DHT22;39202;51.468;7.146;2023-06-04T06:03:14;28.40;31.40
53314;DHT22;39202;51.468;7.146;2023-06-04T06:08:18;28.40;31.40
53314;DHT22;39202;51.468;7.146;2023-06-04T06:13:20;28.40;31.50
53314;DHT22;39202;51.468;7.146;2023-06-04T06:18:21;28.50;31.70
53314;DHT22;39202;51.468;7.146;2023-06-04T06:23:24;28.50;31.70
53314;DHT22;39202;51.468;7.146;2023-06-04T06:28:26;28.50;31.90
53314;DHT22;39202;51.468;7.146;2023-06-04T06:33:28;28.50;31.70
53314;DHT22;39202;51.468;7.146;2023-06-04T06:38:33;28.60;31.90
53314;DHT22;39202;51.468;7.146;2023-06-04T06:43:35;28.60;32.00
53314;DHT22;39202;51.468;7.146;2023-06-04T06:48:37;28.60;32.00
53314;DHT22;39202;51.468;7.146;2023-06-04T06:53:40;28.60;32.00
53314;DHT22;39202;51.468;7.146;2023-06-04T06:58:41;28.70;32.10
53314;DHT22;39202;51.468;7.146;2023-06-04T07:03:43;28.70;32.10
53314;DHT22;39202;51.468;7.146;2023-06-04T07:08:46;28.80;32.10
53314;DHT22;39202;51.468;7.146;2023-06-04T07:13:49;28.80;32.10
53314;DHT22;39202;51.468;7.146;2023-06-04T07:18:50;28.80;32.00
53314;DHT22;39202;51.468;7.146;2023-06-04T07:23:53;28.80;32.00
53314;DHT22;39202;51.468;7.146;2023-06-04T07:28:55;28.90;32.10
53314;DHT22;39202;51.468;7.146;2023-06-04T07:33:57;28.90;32.10
53314;DHT22;39202;51.468;7.146;2023-06-04T07:39:00;29.00;32.10
53314;DHT22;39202;51.468;7.146;2023-06-04T07:44:02;29.00;32.10
53314;DHT22;39202;51.468;7.146;2023-06-04T07:49:03;29.00;32.00
53314;DHT22;39202;51.468;7.146;2023-06-04T07:54:06;29.10;32.00
53314;DHT22;39202;51.468;7.146;2023-06-04T07:59:08;29.10;32.00
53314;DHT22;39202;51.468;7.146;2023-06-04T08:04:10;29.20;32.00
53314;DHT22;39202;51.468;7.146;2023-06-04T08:09:13;29.20;31.90
53314;DHT22;39202;51.468;7.146;2023-06-04T08:14:15;29.20;31.80
53314;DHT22;39202;51.468;7.146;2023-06-04T08:19:17;29.30;31.80
53314;DHT22;39202;51.468;7.146;2023-06-04T08:24:20;29.30;31.70
53314;DHT22;39202;51.468;7.146;2023-06-04T08:29:22;29.30;31.60
53314;DHT22;39202;51.468;7.146;2023-06-04T08:34:24;29.40;31.60
53314;DHT22;39202;51.468;7.146;2023-06-04T08:39:27;29.40;31.50
53314;DHT22;39202;51.468;7.146;2023-06-04T08:44:29;29.40;31.50
53314;DHT22;39202;51.468;7.146;2023-06-04T08:49:34;29.40;31.50
53314;DHT22;39202;51.468;7.146;2023-06-04T08:54:38;29.50;31.50
53314;DHT22;39202;51.468;7.146;2023-06-04T08:59:41;29.50;31.40
53314;DHT22;39202;51.468;7.146;2023-06-04T09:04:43;29.50;31.30
53314;DHT22;39202;51.468;7.146;2023-06-04T09:09:47;29.60;31.20
53314;DHT22;39202;51.468;7.146;2023-06-04T09:14:49;29.60;31.20
53314;DHT22;39202;51.468;7.146;2023-06-04T09:19:51;29.60;31.20
53314;DHT22;39202;51.468;7.146;2023-06-04T09:24:54;29.60;31.10
53314;DHT22;39202;51.468;7.146;2023-06-04T09:29:57;29.70;31.70
53314;DHT22;39202;51.468;7.146;2023-06-04T09:35:08;29.70;31.00
53314;DHT22;39202;51.468;7.146;2023-06-04T09:40:12;29.70;30.90
53314;DHT22;39202;51.468;7.146;2023-06-04T09:45:26;29.80;30.90
53314;DHT22;39202;51.468;7.146;2023-06-04T09:50:30;29.80;30.80
53314;DHT22;39202;51.468;7.146;2023-06-04T09:55:35;29.80;30.80
53314;DHT22;39202;51.468;7.146;2023-06-04T10:00:37;29.90;30.80
53314;DHT22;39202;51.468;7.146;2023-06-04T10:05:39;29.90;30.70
53314;DHT22;39202;51.468;7.146;2023-06-04T10:10:42;30.00;30.80
53314;DHT22;39202;51.468;7.146;2023-06-04T10:15:47;30.00;30.60
53314;DHT22;39202;51.468;7.146;2023-06-04T10:20:49;30.10;30.50
53314;DHT22;39202;51.468;7.146;2023-06-04T10:25:53;30.10;30.50
53314;DHT22;39202;51.468;7.146;2023-06-04T10:30:54;30.10;30.30
53314;DHT22;39202;51.468;7.146;2023-06-04T10:35:56;30.20;30.40
53314;DHT22;39202;51.468;7.146;2023-06-04T10:40:59;30.20;30.30
53314;DHT22;39202;51.468;7.146;2023-06-04T10:46:11;30.20;30.10
53314;DHT22;39202;51.468;7.146;2023-06-04T10:51:14;30.30;30.20
53314;DHT22;39202;51.468;7.146;2023-06-04T10:56:26;30.30;30.10
53314;DHT22;39202;51.468;7.146;2023-06-04T11:01:28;30.30;30.00
53314;DHT22;39202;51.468;7.146;2023-06-04T11:06:32;30.20;29.90
53314;DHT22;39202;51.468;7.146;2023-06-04T11:11:37;30.40;29.90
53314;DHT22;39202;51.468;7.146;2023-06-04T11:16:39;30.40;29.80
53314;DHT22;39202;51.468;7.146;2023-06-04T11:21:41;30.50;29.90
53314;DHT22;39202;51.468;7.146;2023-06-04T11:26:44;30.50;29.90
53314;DHT22;39202;51.468;7.146;2023-06-04T11:31:47;30.50;29.70
53314;DHT22;39202;51.468;7.146;2023-06-04T11:36:49;30.50;29.80
53314;DHT22;39202;51.468;7.146;2023-06-04T11:41:54;30.60;29.80
53314;DHT22;39202;51.468;7.146;2023-06-04T11:46:57;30.60;29.70
53314;DHT22;39202;51.468;7.146;2023-06-04T11:52:00;30.70;29.70
53314;DHT22;39202;51.468;7.146;2023-06-04T11:57:03;30.70;30.20
53314;DHT22;39202;51.468;7.146;2023-06-04T12:02:07;30.70;29.60
53314;DHT22;39202;51.468;7.146;2023-06-04T12:07:08;30.70;29.60
53314;DHT22;39202;51.468;7.146;2023-06-04T12:17:16;30.80;29.10
53314;DHT22;39202;51.468;7.146;2023-06-04T12:22:18;30.80;29.60
53314;DHT22;39202;51.468;7.146;2023-06-04T12:27:23;30.80;29.50
53314;DHT22;39202;51.468;7.146;2023-06-04T12:32:26;30.90;29.50
53314;DHT22;39202;51.468;7.146;2023-06-04T12:37:28;30.90;29.50
53314;DHT22;39202;51.468;7.146;2023-06-04T12:42:31;30.90;29.40
53314;DHT22;39202;51.468;7.146;2023-06-04T12:47:33;30.90;29.40
53314;DHT22;39202;51.468;7.146;2023-06-04T12:52:34;30.90;29.40
53314;DHT22;39202;51.468;7.146;2023-06-04T12:57:37;31.00;29.30
53314;DHT22;39202;51.468;7.146;2023-06-04T13:02:39;31.00;29.30
53314;DHT22;39202;51.468;7.146;2023-06-04T13:07:41;31.00;29.20
53314;DHT22;39202;51.468;7.146;2023-06-04T13:12:44;31.00;29.30
53314;DHT22;39202;51.468;7.146;2023-06-04T13:17:46;31.00;29.30
53314;DHT22;39202;51.468;7.146;2023-06-04T13:22:47;31.00;29.20
53314;DHT22;39202;51.468;7.146;2023-06-04T13:27:51;31.00;29.20
53314;DHT22;39202;51.468;7.146;2023-06-04T13:32:53;31.00;29.20
53314;DHT22;39202;51.468;7.146;2023-06-04T13:37:55;31.00;29.20
53314;DHT22;39202;51.468;7.146;2023-06-04T13:42:58;31.00;29.10
53314;DHT22;39202;51.468;7.146;2023-06-04T13:47:59;31.00;29.10
53314;DHT22;39202;51.468;7.146;2023-06-04T13:53:05;31.00;29.20
53314;DHT22;39202;51.468;7.146;2023-06-04T13:58:08;31.00;29.10
53314;DHT22;39202;51.468;7.146;2023-06-04T14:03:10;31.00;29.10
53314;DHT22;39202;51.468;7.146;2023-06-04T14:08:11;31.00;29.00
53314;DHT22;39202;51.468;7.146;2023-06-04T14:13:15;31.00;29.00
53314;DHT22;39202;51.468;7.146;2023-06-04T14:18:16;31.00;29.00
53314;DHT22;39202;51.468;7.146;2023-06-04T14:23:18;31.00;29.00
53314;DHT22;39202;51.468;7.146;2023-06-04T14:28:22;31.00;29.00
53314;DHT22;39202;51.468;7.146;2023-06-04T14:33:24;31.00;28.90
53314;DHT22;39202;51.468;7.146;2023-06-04T14:38:25;31.00;29.00
53314;DHT22;39202;51.468;7.146;2023-06-04T14:43:28;31.00;28.90
53314;DHT22;39202;51.468;7.146;2023-06-04T14:48:30;31.00;29.00
53314;DHT22;39202;51.468;7.146;2023-06-04T14:53:32;30.90;28.90
53314;DHT22;39202;51.468;7.146;2023-06-04T14:58:35;31.00;29.00
53314;DHT22;39202;51.468;7.146;2023-06-04T15:03:38;31.00;29.00
53314;DHT22;39202;51.468;7.146;2023-06-04T15:08:40;30.90;29.00
53314;DHT22;39202;51.468;7.146;2023-06-04T15:13:43;30.90;29.00
53314;DHT22;39202;51.468;7.146;2023-06-04T15:18:45;30.90;29.00
53314;DHT22;39202;51.468;7.146;2023-06-04T15:23:46;30.90;29.00
53314;DHT22;39202;51.468;7.146;2023-06-04T15:28:50;30.80;28.90
53314;DHT22;39202;51.468;7.146;2023-06-04T15:33:52;30.80;29.00
53314;DHT22;39202;51.468;7.146;2023-06-04T15:38:54;30.80;29.00
53314;DHT22;39202;51.468;7.146;2023-06-04T15:43:57;30.80;29.00
53314;DHT22;39202;51.468;7.146;2023-06-04T15:49:03;30.80;29.00
53314;DHT22;39202;51.468;7.146;2023-06-04T15:54:06;30.90;29.10
53314;DHT22;39202;51.468;7.146;2023-06-04T15:59:09;30.80;29.10
53314;DHT22;39202;51.468;7.146;2023-06-04T16:04:11;30.80;29.10
53314;DHT22;39202;51.468;7.146;2023-06-04T16:09:13;30.80;29.20
53314;DHT22;39202;51.468;7.146;2023-06-04T16:14:16;30.80;29.20
53314;DHT22;39202;51.468;7.146;2023-06-04T16:19:18;30.80;29.20
53314;DHT22;39202;51.468;7.146;2023-06-04T16:24:19;30.80;29.30
53314;DHT22;39202;51.468;7.146;2023-06-04T16:29:22;30.70;29.20
53314;DHT22;39202;51.468;7.146;2023-06-04T16:34:24;30.70;29.30
53314;DHT22;39202;51.468;7.146;2023-06-04T16:39:26;30.70;29.30
53314;DHT22;39202;51.468;7.146;2023-06-04T16:44:29;30.80;29.30
53314;DHT22;39202;51.468;7.146;2023-06-04T16:49:31;30.70;29.30
53314;DHT22;39202;51.468;7.146;2023-06-04T16:54:32;30.70;29.30
53314;DHT22;39202;51.468;7.146;2023-06-04T16:59:35;30.70;29.30
53314;DHT22;39202;51.468;7.146;2023-06-04T17:04:37;30.70;29.30
53314;DHT22;39202;51.468;7.146;2023-06-04T17:09:39;30.60;29.30
53314;DHT22;39202;51.468;7.146;2023-06-04T17:14:42;30.70;29.30
53314;DHT22;39202;51.468;7.146;2023-06-04T17:19:44;30.70;29.30
53314;DHT22;39202;51.468;7.146;2023-06-04T17:24:49;30.70;29.30
53314;DHT22;39202;51.468;7.146;2023-06-04T17:29:52;30.60;29.30
53314;DHT22;39202;51.468;7.146;2023-06-04T17:34:53;30.60;29.30
53314;DHT22;39202;51.468;7.146;2023-06-04T17:39:55;30.60;29.30
53314;DHT22;39202;51.468;7.146;2023-06-04T17:45:01;30.60;29.30
53314;DHT22;39202;51.468;7.146;2023-06-04T17:50:05;30.60;29.30
53314;DHT22;39202;51.468;7.146;2023-06-04T17:55:08;30.60;29.40
53314;DHT22;39202;51.468;7.146;2023-06-04T18:00:12;30.60;29.40
53314;DHT22;39202;51.468;7.146;2023-06-04T18:05:14;30.60;29.40
53314;DHT22;39202;51.468;7.146;2023-06-04T18:10:16;30.60;29.40
53314;DHT22;39202;51.468;7.146;2023-06-04T18:15:19;30.60;29.40
53314;DHT22;39202;51.468;7.146;2023-06-04T18:20:22;30.60;30.00
53314;DHT22;39202;51.468;7.146;2023-06-04T18:25:24;30.60;29.40
53314;DHT22;39202;51.468;7.146;2023-06-04T18:30:28;30.60;29.40
53314;DHT22;39202;51.468;7.146;2023-06-04T18:35:29;30.60;29.50
53314;DHT22;39202;51.468;7.146;2023-06-04T18:40:32;30.60;29.50
53314;DHT22;39202;51.468;7.146;2023-06-04T18:45:35;30.60;29.50
53314;DHT22;39202;51.468;7.146;2023-06-04T18:50:38;30.60;29.50
53314;DHT22;39202;51.468;7.146;2023-06-04T18:55:40;30.60;29.50
53314;DHT22;39202;51.468;7.146;2023-06-04T19:00:44;30.60;29.50
53314;DHT22;39202;51.468;7.146;2023-06-04T19:05:48;30.60;29.60
53314;DHT22;39202;51.468;7.146;2023-06-04T19:10:50;30.50;29.60
53314;DHT22;39202;51.468;7.146;2023-06-04T19:15:54;30.50;29.50
53314;DHT22;39202;51.468;7.146;2023-06-04T19:20:55;30.50;29.60
53314;DHT22;39202;51.468;7.146;2023-06-04T19:25:57;30.50;29.60
53314;DHT22;39202;51.468;7.146;2023-06-04T19:31:00;30.50;29.60
53314;DHT22;39202;51.468;7.146;2023-06-04T19:36:02;30.50;29.60
53314;DHT22;39202;51.468;7.146;2023-06-04T19:41:05;30.50;29.60
53314;DHT22;39202;51.468;7.146;2023-06-04T19:46:08;30.50;29.60
53314;DHT22;39202;51.468;7.146;2023-06-04T19:51:10;30.50;29.60
53314;DHT22;39202;51.468;7.146;2023-06-04T19:56:14;30.50;29.60
53314;DHT22;39202;51.468;7.146;2023-06-04T20:01:17;30.40;29.50
53314;DHT22;39202;51.468;7.146;2023-06-04T20:06:19;29.70;29.20
53314;DHT22;39202;51.468;7.146;2023-06-04T20:11:20;30.30;29.50
53314;DHT22;39202;51.468;7.146;2023-06-04T20:16:24;30.30;29.50
53314;DHT22;39202;51.468;7.146;2023-06-04T20:21:26;30.40;29.60
53314;DHT22;39202;51.468;7.146;2023-06-04T20:26:28;30.30;29.50
53314;DHT22;39202;51.468;7.146;2023-06-04T20:31:31;30.30;29.50
53314;DHT22;39202;51.468;7.146;2023-06-04T20:36:33;30.30;29.60
53314;DHT22;39202;51.468;7.146;2023-06-04T20:41:36;30.30;29.60
53314;DHT22;39202;51.468;7.146;2023-06-04T20:46:39;30.10;29.50
53314;DHT22;39202;51.468;7.146;2023-06-04T20:51:41;30.30;29.60
53314;DHT22;39202;51.468;7.146;2023-06-04T20:56:43;30.20;29.60
53314;DHT22;39202;51.468;7.146;2023-06-04T21:01:46;30.20;29.60
53314;DHT22;39202;51.468;7.146;2023-06-04T21:06:48;30.20;29.70
53314;DHT22;39202;51.468;7.146;2023-06-04T21:11:49;30.20;29.70
53314;DHT22;39202;51.468;7.146;2023-06-04T21:16:53;30.20;29.70
53314;DHT22;39202;51.468;7.146;2023-06-04T21:21:55;30.20;29.70
53314;DHT22;39202;51.468;7.146;2023-06-04T21:26:56;30.10;29.70
53314;DHT22;39202;51.468;7.146;2023-06-04T21:31:59;30.10;29.70
53314;DHT22;39202;51.468;7.146;2023-06-04T21:37:01;30.20;29.90
53314;DHT22;39202;51.468;7.146;2023-06-04T21:42:03;30.20;29.90
53314;DHT22;39202;51.468;7.146;2023-06-04T21:47:07;30.10;29.80
53314;DHT22;39202;51.468;7.146;2023-06-04T21:52:09;30.10;29.90
53314;DHT22;39202;51.468;7.146;2023-06-04T21:57:11;30.10;29.90
53314;DHT22;39202;51.468;7.146;2023-06-04T22:02:14;30.10;29.90
53314;DHT22;39202;51.468;7.146;2023-06-04T22:07:16;30.10;29.90
53314;DHT22;39202;51.468;7.146;2023-06-04T22:12:17;30.10;30.00
53314;DHT22;39202;51.468;7.146;2023-06-04T22:17:20;30.10;30.00
53314;DHT22;39202;51.468;7.146;2023-06-04T22:22:22;30.00;29.90
53314;DHT22;39202;51.468;7.146;2023-06-04T22:27:24;30.10;30.00
53314;DHT22;39202;51.468;7.146;2023-06-04T22:32:27;30.00;30.00
53314;DHT22;39202;51.468;7.146;2023-06-04T22:37:29;30.00;30.00
53314;DHT22;39202;51.468;7.146;2023-06-04T22:42:30;30.10;30.10
53314;DHT22;39202;51.468;7.146;2023-06-04T22:47:33;29.90;30.00
53314;DHT22;39202;51.468;7.146;2023-06-04T22:52:35;30.00;30.20
53314;DHT22;39202;51.468;7.146;2023-06-04T22:57:40;30.00;30.20
53314;DHT22;39202;51.468;7.146;2023-06-04T23:02:45;30.00;30.30
53314;DHT22;39202;51.468;7.146;2023-06-04T23:07:46;30.00;30.40
53314;DHT22;39202;51.468;7.146;2023-06-04T23:12:48;29.90;30.40
53314;DHT22;39202;51.468;7.146;2023-06-04T23:17:52;29.90;30.40
53314;DHT22;39202;51.468;7.146;2023-06-04T23:22:54;29.90;30.50
53314;DHT22;39202;51.468;7.146;2023-06-04T23:27:56;29.90;30.50
53314;DHT22;39202;51.468;7.146;2023-06-04T23:32:59;29.90;30.60
53314;DHT22;39202;51.468;7.146;2023-06-04T23:38:03;29.90;30.70
53314;DHT22;39202;51.468;7.146;2023-06-04T23:43:04;29.90;30.70
53314;DHT22;39202;51.468;7.146;2023-06-04T23:48:07;29.90;30.80
53314;DHT22;39202;51.468;7.146;2023-06-04T23:53:09;29.80;30.80
53314;DHT22;39202;51.468;7.146;2023-06-04T23:58:11;29.90;30.90
